createdAt,value
2019-04-04T00:01:16.722Z,91.30
2019-04-04T00:04:04.062Z,91.60
2019-04-04T00:06:51.958Z,91.90
2019-04-04T00:09:40.173Z,92.10
2019-04-04T00:12:28.760Z,92.40
2019-04-04T00:15:16.948Z,91.70
2019-04-04T00:18:06.287Z,91.30
2019-04-04T00:20:54.569Z,90.70
2019-04-04T00:23:43.010Z,90.40
2019-04-04T00:26:31.618Z,90.70
2019-04-04T00:29:19.566Z,90.50
2019-04-04T00:32:07.702Z,90.30
2019-04-04T00:34:55.510Z,90.60
2019-04-04T00:37:43.785Z,91.20
2019-04-04T00:40:32.202Z,91.60
2019-04-04T00:43:22.594Z,91.80
2019-04-04T00:46:11.130Z,92.80
2019-04-04T00:48:58.890Z,92.60
2019-04-04T00:51:47.767Z,92.70
2019-04-04T00:54:36.147Z,92.80
2019-04-04T00:57:24.339Z,92.70
2019-04-04T01:00:12.366Z,93.50
2019-04-04T01:03:01.815Z,94.90
2019-04-04T01:05:50.143Z,93.50
2019-04-04T01:08:39.078Z,92.80
2019-04-04T01:11:27.752Z,92.50
2019-04-04T01:14:15.838Z,92.10
2019-04-04T01:17:04.241Z,92.30
2019-04-04T01:19:53.180Z,92.70
2019-04-04T01:22:41.818Z,94.70
2019-04-04T01:25:31.957Z,94.60
2019-04-04T01:28:19.456Z,94.70
2019-04-04T01:31:07.331Z,93.90
2019-04-04T01:33:54.950Z,93.50
2019-04-04T01:36:43.479Z,93.40
2019-04-04T01:39:32.326Z,93.20
2019-04-04T01:42:21.325Z,94.00
2019-04-04T01:45:12.694Z,94.60
2019-04-04T01:47:58.794Z,94.40
2019-04-04T01:50:47.102Z,94.60
2019-04-04T01:53:35.464Z,94.90
2019-04-04T01:56:27.039Z,94.80
2019-04-04T01:59:14.959Z,93.10
2019-04-04T02:02:05.790Z,92.30
2019-04-04T02:04:55.972Z,91.40
2019-04-04T02:07:44.492Z,91.50
2019-04-04T02:10:34.580Z,93.30
2019-04-04T02:13:22.835Z,94.30
2019-04-04T02:16:11.345Z,94.50
2019-04-04T02:19:00.064Z,93.00
2019-04-04T02:21:48.110Z,92.00
2019-04-04T02:24:36.024Z,91.40
2019-04-04T02:27:24.105Z,91.70
2019-04-04T02:30:16.035Z,92.50
2019-04-04T02:33:02.085Z,94.60
2019-04-04T02:35:50.124Z,94.40
2019-04-04T02:38:38.116Z,94.00
2019-04-04T02:41:26.325Z,93.80
2019-04-04T02:44:14.367Z,93.80
2019-04-04T02:47:02.497Z,94.20
2019-04-04T02:49:50.777Z,94.60
2019-04-04T02:52:38.779Z,95.50
2019-04-04T02:55:29.845Z,95.70
2019-04-04T02:58:16.324Z,95.20
2019-04-04T03:01:04.075Z,95.20
2019-04-04T03:03:52.604Z,95.50
2019-04-04T03:06:40.928Z,94.30
2019-04-04T03:12:25.747Z,94.60
2019-04-04T03:15:13.404Z,94.90
2019-04-04T03:18:04.189Z,95.30
2019-04-04T03:20:50.981Z,95.50
2019-04-04T03:23:38.722Z,95.50
2019-04-04T03:26:26.586Z,95.80
2019-04-04T03:29:14.397Z,95.20
2019-04-04T03:32:02.959Z,95.70
2019-04-04T03:34:51.888Z,96.10
2019-04-04T03:37:41.716Z,96.10
2019-04-04T03:40:29.839Z,97.10
2019-04-04T03:43:18.006Z,96.90
2019-04-04T03:46:06.500Z,96.80
2019-04-04T03:48:55.194Z,96.30
2019-04-04T03:51:43.773Z,97.20
2019-04-04T03:54:32.482Z,96.80
2019-04-04T03:57:20.979Z,96.60
2019-04-04T04:00:09.622Z,96.50
2019-04-04T04:02:57.711Z,95.70
2019-04-04T04:05:46.114Z,96.10
2019-04-04T04:08:34.287Z,96.30
2019-04-04T04:11:22.403Z,95.50
2019-04-04T04:14:10.123Z,96.00
2019-04-04T04:16:58.367Z,97.20
2019-04-04T04:19:46.170Z,97.60
2019-04-04T04:22:34.824Z,98.20
2019-04-04T04:25:22.975Z,98.30
2019-04-04T04:28:11.099Z,97.30
2019-04-04T04:30:59.925Z,95.60
2019-04-04T04:33:48.029Z,96.10
2019-04-04T04:36:36.975Z,96.20
2019-04-04T04:39:24.799Z,96.20
2019-04-04T04:42:13.107Z,95.40
2019-04-04T04:45:01.311Z,95.50
2019-04-04T04:47:49.247Z,96.20
2019-04-04T04:50:40.042Z,96.60
2019-04-04T04:53:27.735Z,96.30
2019-04-04T04:56:17.631Z,95.80
2019-04-04T04:59:05.724Z,96.30
2019-04-04T05:01:54.051Z,96.10
2019-04-04T05:04:42.015Z,96.30
2019-04-04T05:07:30.827Z,97.70
2019-04-04T05:10:19.281Z,98.40
2019-04-04T05:13:09.839Z,98.80
2019-04-04T05:15:59.315Z,97.70
2019-04-04T05:18:48.223Z,97.30
2019-04-04T05:21:37.131Z,97.30
2019-04-04T05:24:25.469Z,97.60
2019-04-04T05:27:15.147Z,97.60
2019-04-04T05:30:03.278Z,97.40
2019-04-04T05:32:54.618Z,97.80
2019-04-04T05:35:41.340Z,98.20
2019-04-04T05:38:30.788Z,98.80
2019-04-04T05:41:19.360Z,98.40
2019-04-04T05:44:10.057Z,97.90
2019-04-04T05:46:56.949Z,97.60
2019-04-04T05:49:46.625Z,97.20
2019-04-04T05:52:35.186Z,97.50
2019-04-04T05:56:06.323Z,97.60
2019-04-04T06:02:41.066Z,98.10
2019-04-04T06:05:42.154Z,98.50
2019-04-04T06:08:34.818Z,98.70
2019-04-04T06:11:35.318Z,97.60
2019-04-04T06:14:34.979Z,97.40
2019-04-04T06:17:39.173Z,96.50
2019-04-04T06:20:31.904Z,97.70
2019-04-04T06:23:25.688Z,96.00
2019-04-04T06:26:20.994Z,95.50
2019-04-04T06:29:20.426Z,96.30
2019-04-04T06:32:31.029Z,96.80
2019-04-04T06:35:39.912Z,98.50
2019-04-04T06:38:31.499Z,99.10
2019-04-04T06:41:20.500Z,98.30
2019-04-04T06:44:10.969Z,97.30
2019-04-04T06:47:02.303Z,97.00
2019-04-04T06:49:50.741Z,94.80
2019-04-04T06:52:40.998Z,92.90
2019-04-04T06:55:29.506Z,91.60
2019-04-04T06:58:17.823Z,90.70
2019-04-04T07:01:05.983Z,88.50
2019-04-04T07:03:54.132Z,87.10
2019-04-04T07:06:42.565Z,82.60
2019-04-04T07:09:31.020Z,81.10
2019-04-04T07:12:22.498Z,81.40
2019-04-04T07:15:12.537Z,80.70
2019-04-04T07:17:59.678Z,80.40
2019-04-04T07:20:48.918Z,76.80
2019-04-04T07:23:37.285Z,77.60
2019-04-04T07:26:25.186Z,73.00
2019-04-04T07:29:13.759Z,70.90
2019-04-04T07:32:01.944Z,71.80
2019-04-04T07:37:38.098Z,66.00
2019-04-04T07:43:13.283Z,58.30
2019-04-04T07:46:15.322Z,54.60
2019-04-04T07:48:51.690Z,57.30
2019-04-04T07:51:40.126Z,59.90
2019-04-04T07:54:28.286Z,60.50
2019-04-04T07:57:17.320Z,60.40
2019-04-04T08:00:06.609Z,60.90
2019-04-04T08:02:55.398Z,60.10
2019-04-04T08:05:43.681Z,61.30
2019-04-04T08:08:32.179Z,61.10
2019-04-04T08:14:09.347Z,61.80
2019-04-04T08:16:57.382Z,48.30
2019-04-04T08:19:45.662Z,51.20
2019-04-04T08:22:34.029Z,53.30
2019-04-04T08:25:23.014Z,54.40
2019-04-04T08:28:11.067Z,54.30
2019-04-04T08:30:58.835Z,54.40
2019-04-04T08:33:46.787Z,56.30
2019-04-04T08:36:35.974Z,55.00
2019-04-04T08:39:25.007Z,53.20
2019-04-04T08:42:15.196Z,49.00
2019-04-04T08:47:51.427Z,46.50
2019-04-04T08:50:39.657Z,45.30
2019-04-04T09:24:15.806Z,45.30
2019-04-04T09:27:03.884Z,41.30
2019-04-04T09:29:52.342Z,39.90
2019-04-04T09:32:40.470Z,40.00
2019-04-04T09:35:29.463Z,40.80
2019-04-04T09:42:42.363Z,41.70
2019-04-04T09:46:02.017Z,40.60
2019-04-04T09:49:07.467Z,39.30
2019-04-04T09:52:14.484Z,38.90
2019-04-04T09:55:04.652Z,40.40
2019-04-04T10:00:42.175Z,37.70
2019-04-04T10:03:30.173Z,36.50
2019-04-04T10:09:15.711Z,38.20
2019-04-04T10:12:02.772Z,38.00
2019-04-04T10:14:51.371Z,38.60
2019-04-04T10:17:39.605Z,39.50
2019-04-04T10:23:15.470Z,40.90
2019-04-04T10:26:08.985Z,44.70
2019-04-04T10:28:57.253Z,46.30
2019-04-04T10:31:45.347Z,47.40
2019-04-04T10:34:33.434Z,49.30
2019-04-04T10:37:21.887Z,50.00
2019-04-04T10:40:10.187Z,49.90
2019-04-04T10:42:59.071Z,50.30
2019-04-04T10:45:47.330Z,50.80
2019-04-04T10:48:35.610Z,52.00
2019-04-04T10:51:23.833Z,52.00
2019-04-04T10:54:12.114Z,51.60
2019-04-04T10:57:01.026Z,51.20
2019-04-04T10:59:49.192Z,52.40
2019-04-04T11:02:37.103Z,53.30
2019-04-04T11:05:25.882Z,52.90
2019-04-04T11:08:17.538Z,50.90
2019-04-04T11:11:06.057Z,49.90
2019-04-04T11:13:54.287Z,50.10
2019-04-04T11:16:43.026Z,50.60
2019-04-04T11:19:31.666Z,50.90
2019-04-04T11:22:19.946Z,51.00
2019-04-04T11:25:07.834Z,50.40
2019-04-04T11:27:56.578Z,49.20
2019-04-04T11:30:44.439Z,50.60
2019-04-04T11:33:32.875Z,51.80
2019-04-04T11:36:21.506Z,51.80
2019-04-04T11:39:09.447Z,52.70
2019-04-04T11:41:57.533Z,54.20
2019-04-04T11:44:45.648Z,55.30
2019-04-04T11:47:33.918Z,54.00
2019-04-04T11:50:21.930Z,54.70
2019-04-04T11:53:09.926Z,55.40
2019-04-04T11:55:57.731Z,55.20
2019-04-04T11:58:45.872Z,56.40
2019-04-04T12:01:35.582Z,57.20
2019-04-04T12:04:23.637Z,56.90
2019-04-04T12:07:11.599Z,57.20
2019-04-04T12:10:07.468Z,55.60
2019-04-04T12:12:50.343Z,56.70
2019-04-04T12:15:39.206Z,55.40
2019-04-04T12:18:27.715Z,54.60
2019-04-04T12:21:16.183Z,55.20
2019-04-04T12:24:04.626Z,54.80
2019-04-04T12:26:53.426Z,56.60
2019-04-04T12:29:41.755Z,55.60
2019-04-04T12:32:30.455Z,54.80
2019-04-04T12:35:18.253Z,56.30
2019-04-04T12:38:07.014Z,55.90
2019-04-04T12:40:57.192Z,54.10
2019-04-04T12:43:45.731Z,53.50
2019-04-04T12:46:36.691Z,53.90
2019-04-04T12:49:25.694Z,54.20
2019-04-04T12:52:15.652Z,54.10
2019-04-04T12:55:04.719Z,55.10
2019-04-04T12:57:52.798Z,55.50
2019-04-04T13:03:35.226Z,57.40
2019-04-04T13:06:23.671Z,59.10
2019-04-04T13:09:12.683Z,58.80
2019-04-04T13:12:01.695Z,59.60
2019-04-04T13:14:50.066Z,59.90
2019-04-04T13:17:38.846Z,58.50
2019-04-04T13:20:26.911Z,59.80
2019-04-04T13:23:15.771Z,59.90
2019-04-04T13:26:04.553Z,60.00
2019-04-04T13:28:53.228Z,58.50
2019-04-04T13:31:41.694Z,57.40
2019-04-04T13:34:30.055Z,56.80
2019-04-04T13:37:17.807Z,54.80
2019-04-04T13:42:53.730Z,54.50
2019-04-04T13:45:41.967Z,52.60
2019-04-04T13:48:32.066Z,53.60
2019-04-04T13:51:21.096Z,54.80
2019-04-04T13:54:12.238Z,56.60
2019-04-04T13:57:00.896Z,56.20
2019-04-04T13:59:49.138Z,58.30
2019-04-04T14:02:37.772Z,58.90
2019-04-04T14:05:30.255Z,59.30
2019-04-04T14:08:28.441Z,58.90
2019-04-04T14:11:17.375Z,61.50
2019-04-04T14:14:06.517Z,62.60
2019-04-04T14:16:54.549Z,65.00
2019-04-04T14:19:43.391Z,66.50
2019-04-04T14:22:33.222Z,67.40
2019-04-04T14:25:21.860Z,68.70
2019-04-04T14:28:12.711Z,70.20
2019-04-04T14:31:01.786Z,71.10
2019-04-04T14:33:51.009Z,69.80
2019-04-04T14:36:40.010Z,70.20
2019-04-04T14:39:28.552Z,72.40
2019-04-04T14:42:19.693Z,74.10
2019-04-04T14:45:08.909Z,74.70
2019-04-04T14:47:57.739Z,74.80
2019-04-04T14:50:46.152Z,74.70
2019-04-04T14:53:35.942Z,72.50
2019-04-04T14:56:28.937Z,73.00
2019-04-04T14:59:17.327Z,73.10
2019-04-04T15:02:06.393Z,71.90
2019-04-04T15:04:55.194Z,71.80
2019-04-04T15:07:44.717Z,72.30
2019-04-04T15:10:35.516Z,72.20
2019-04-04T15:14:13.840Z,72.00
2019-04-04T15:17:54.987Z,73.30
2019-04-04T15:20:56.955Z,74.90
2019-04-04T15:23:52.198Z,75.60
2019-04-04T15:26:38.016Z,74.80
2019-04-04T15:29:42.979Z,74.50
2019-04-04T15:32:36.489Z,73.90
2019-04-04T15:35:27.589Z,75.60
2019-04-04T15:38:17.240Z,76.00
2019-04-04T15:54:34.815Z,78.30
2019-04-04T15:57:23.404Z,77.90
2019-04-04T16:00:12.495Z,78.80
2019-04-04T16:03:00.219Z,78.40
2019-04-04T16:05:48.965Z,78.80
2019-04-04T16:08:38.108Z,78.10
2019-04-04T16:11:26.721Z,78.00
2019-04-04T16:14:14.707Z,78.30
2019-04-04T16:17:02.628Z,79.20
2019-04-04T16:19:50.638Z,79.20
2019-04-04T16:22:39.054Z,78.10
2019-04-04T16:25:27.046Z,78.00
2019-04-04T16:28:14.646Z,78.90
2019-04-04T16:31:03.816Z,80.60
2019-04-04T16:33:51.675Z,81.40
2019-04-04T16:36:39.891Z,80.20
2019-04-04T16:39:28.491Z,79.50
2019-04-04T16:42:16.476Z,79.50
2019-04-04T16:45:07.537Z,80.20
2019-04-04T16:47:55.923Z,79.70
2019-04-04T16:50:44.414Z,80.20
2019-04-04T16:53:32.847Z,80.20
2019-04-04T16:56:21.364Z,80.00
2019-04-04T16:59:09.515Z,79.20
2019-04-04T17:01:57.051Z,79.60
2019-04-04T17:04:45.760Z,80.30
2019-04-04T17:07:34.207Z,82.40
2019-04-04T17:10:22.890Z,82.80
2019-04-04T17:13:11.815Z,83.00
2019-04-04T17:16:05.316Z,83.30
2019-04-04T17:19:00.337Z,83.20
2019-04-04T17:21:52.118Z,84.10
2019-04-04T17:24:40.526Z,84.70
2019-04-04T17:27:32.983Z,83.70
2019-04-04T17:30:25.638Z,83.10
2019-04-04T17:33:14.032Z,83.00
2019-04-04T17:36:02.792Z,81.90
2019-04-04T17:38:54.961Z,82.30
2019-04-04T17:41:41.406Z,83.70
2019-04-04T17:44:29.863Z,84.20
2019-04-04T17:47:18.070Z,85.50
2019-04-04T17:50:07.490Z,86.10
2019-04-04T17:53:02.010Z,88.40
2019-04-04T17:55:53.495Z,90.20
2019-04-04T17:58:40.637Z,90.70
2019-04-04T18:01:34.289Z,91.30
2019-04-04T18:04:22.163Z,92.10
2019-04-04T18:07:11.174Z,90.60
2019-04-04T18:10:04.549Z,90.00
2019-04-04T18:12:55.487Z,90.40
2019-04-04T18:15:49.457Z,90.80
2019-04-04T18:18:51.374Z,91.00
2019-04-04T18:21:48.839Z,90.60
2019-04-04T18:24:47.987Z,90.40
2019-04-04T18:27:36.510Z,92.00
2019-04-04T18:30:25.350Z,92.70
2019-04-04T18:33:14.204Z,92.60
2019-04-04T18:36:06.850Z,91.90
2019-04-04T18:38:55.534Z,91.30
2019-04-04T18:41:46.961Z,90.60
2019-04-04T18:44:34.899Z,90.60
2019-04-04T18:47:23.790Z,91.10
2019-04-04T18:50:12.615Z,91.10
2019-04-04T18:53:01.205Z,90.40
2019-04-04T18:55:54.804Z,90.30
2019-04-04T18:58:49.732Z,90.60
2019-04-04T19:01:38.737Z,91.50
2019-04-04T19:04:45.610Z,91.10
2019-04-04T19:07:39.593Z,90.90
2019-04-04T19:10:27.797Z,92.00
2019-04-04T19:13:18.420Z,91.50
2019-04-04T19:16:13.046Z,91.20
2019-04-04T19:19:04.095Z,91.50
2019-04-04T19:21:55.353Z,91.80
2019-04-04T19:24:44.161Z,92.40
2019-04-04T19:27:33.075Z,91.80
2019-04-04T19:30:22.078Z,91.80
2019-04-04T19:33:10.424Z,91.90
2019-04-04T19:36:06.480Z,91.80
2019-04-04T19:38:56.055Z,91.90
2019-04-04T19:41:49.171Z,92.50
2019-04-04T19:44:38.759Z,92.50
2019-04-04T19:47:30.009Z,93.50
2019-04-04T19:50:20.718Z,94.00
2019-04-04T19:53:16.431Z,94.90
2019-04-04T19:56:06.816Z,95.50
2019-04-04T19:58:57.477Z,94.90
2019-04-04T20:01:49.113Z,95.50
2019-04-04T20:04:37.076Z,95.90
2019-04-04T20:07:26.027Z,95.70
2019-04-04T20:10:17.305Z,95.90
2019-04-04T20:13:09.787Z,96.10
2019-04-04T20:15:57.842Z,95.80
2019-04-04T20:18:49.950Z,95.60
2019-04-04T20:21:43.036Z,94.60
2019-04-04T20:24:31.648Z,94.70
2019-04-04T20:27:24.652Z,94.50
2019-04-04T20:30:18.789Z,94.90
2019-04-04T20:33:13.776Z,94.50
2019-04-04T20:36:03.915Z,94.60
2019-04-04T20:39:11.416Z,94.40
2019-04-04T20:42:00.666Z,94.10
2019-04-04T20:44:49.699Z,94.90
2019-04-04T20:47:37.755Z,95.50
2019-04-04T20:50:26.543Z,96.00
2019-04-04T20:53:14.514Z,96.70
2019-04-04T20:56:02.837Z,97.10
2019-04-04T20:58:50.863Z,96.60
2019-04-04T21:01:39.292Z,95.80
2019-04-04T21:04:32.360Z,95.40
2019-04-04T21:07:21.088Z,95.40
2019-04-04T21:10:21.742Z,95.20
2019-04-04T21:13:11.275Z,95.30
2019-04-04T21:15:59.703Z,95.50
2019-04-04T21:18:48.867Z,95.10
2019-04-04T21:21:40.651Z,95.10
2019-04-04T21:24:29.309Z,96.70
2019-04-04T21:27:18.915Z,96.20
2019-04-04T21:30:07.995Z,96.10
2019-04-04T21:33:55.196Z,96.60
2019-04-04T21:36:46.986Z,97.00
2019-04-04T21:39:35.423Z,96.60
2019-04-04T21:42:23.895Z,96.80
2019-04-04T21:45:15.089Z,96.60
2019-04-04T21:48:02.540Z,96.00
2019-04-04T21:50:51.669Z,95.10
2019-04-04T21:53:40.227Z,94.30
2019-04-04T21:56:28.302Z,94.60
2019-04-04T21:59:16.615Z,94.60
2019-04-04T22:02:11.109Z,93.90
2019-04-04T22:04:58.909Z,94.20
2019-04-04T22:07:47.244Z,95.10
2019-04-04T22:10:35.302Z,95.90
2019-04-04T22:13:23.752Z,96.80
2019-04-04T22:16:11.784Z,96.20
2019-04-04T22:19:00.197Z,95.90
2019-04-04T22:21:47.959Z,95.80
2019-04-04T22:24:35.831Z,95.40
2019-04-04T22:27:24.024Z,95.10
2019-04-04T22:30:12.506Z,94.50
2019-04-04T22:33:01.796Z,94.50
2019-04-04T22:35:49.542Z,94.60
2019-04-04T22:38:37.966Z,95.40
2019-04-04T22:41:26.234Z,96.60
2019-04-04T22:44:14.878Z,97.00
2019-04-04T22:47:02.866Z,96.70
2019-04-04T22:49:51.107Z,97.40
2019-04-04T22:52:39.097Z,98.10
2019-04-04T22:55:27.414Z,98.10
2019-04-04T22:58:27.351Z,97.00
2019-04-04T23:01:04.986Z,97.10
2019-04-04T23:03:53.096Z,97.80
2019-04-04T23:06:41.666Z,97.80
2019-04-04T23:09:30.179Z,97.90
2019-04-04T23:12:17.763Z,98.10
2019-04-04T23:15:07.902Z,98.40
2019-04-04T23:17:56.278Z,98.10
2019-04-04T23:20:44.525Z,99.40
2019-04-04T23:23:32.570Z,99.20
2019-04-04T23:26:21.118Z,99.30
2019-04-04T23:29:08.982Z,98.60
2019-04-04T23:31:57.353Z,98.30
2019-04-04T23:34:45.804Z,98.80
2019-04-04T23:37:33.630Z,98.30
2019-04-04T23:40:21.802Z,98.30
2019-04-04T23:43:09.693Z,97.80
2019-04-04T23:45:57.427Z,97.40
2019-04-04T23:48:46.010Z,96.60
2019-04-04T23:51:33.655Z,96.10
2019-04-04T23:54:22.310Z,96.20
2019-04-04T23:57:11.246Z,96.10
